Wetterdaten: Woche 08.06.09 - 14.06.09 (KW24)
Datum Zeit Temp. Innen Temp. Aussen UV X Diff Temp. Feuchte Inne Feuchte Auss Sonnenschein Luftdruck Regen ab 0,1 Wind Sonnenschein Windben
08.06.2009 00:00 17,6 C 10,8 C 0,0 UV-I 0,0 C 61 % 89 % 0 % 1003,5 hPa 0,1 l/m 0,0 km/h (0 Bft) 0,00 h 0,2 km/h (0 Bft)
08.06.2009 01:00 17,6 C 10,7 C 0,0 UV-I 0,0 C 62 % 90 % 0 % 1003,5 hPa 0,4 l/m 0,3 km/h (0 Bft) 0,00 h 0,5 km/h (0 Bft)
08.06.2009 02:00 17,5 C 10,5 C 0,0 UV-I 0,0 C 61 % 90 % 0 % 1003,5 hPa 0,0 l/m 0,0 km/h (0 Bft) 0,00 h 0,1 km/h (0 Bft)
08.06.2009 03:00 17,4 C 10,4 C 0,0 UV-I 0,0 C 61 % 90 % 0 % 1003,8 hPa 0,0 l/m 0,4 km/h (0 Bft) 0,00 h 0,7 km/h (0 Bft)
08.06.2009 04:00 17,2 C 10,2 C 0,0 UV-I 0,0 C 59 % 88 % 0 % 1004,0 hPa 0,0 l/m 1,3 km/h (1 Bft) 0,00 h 2,0 km/h (1 Bft)
08.06.2009 05:00 16,9 C 10,0 C 0,0 UV-I 0,0 C 59 % 89 % 0 % 1004,4 hPa 0,0 l/m 1,4 km/h (1 Bft) 0,00 h 2,0 km/h (1 Bft)
08.06.2009 06:00 16,8 C 10,1 C 0,2 UV-I 0,0 C 59 % 88 % 0 % 1005,1 hPa 0,0 l/m 2,4 km/h (1 Bft) 0,00 h 3,4 km/h (1 Bft)
08.06.2009 07:00 16,7 C 10,4 C 0,6 UV-I 0,0 C 59 % 88 % 0 % 1005,4 hPa 0,0 l/m 2,3 km/h (1 Bft) 0,00 h 3,3 km/h (1 Bft)
08.06.2009 08:00 16,7 C 11,0 C 1,3 UV-I 0,2 C 59 % 85 % 6 % 1006,0 hPa 0,0 l/m 3,4 km/h (1 Bft) 0,00 h 3,9 km/h (1 Bft)
08.06.2009 09:00 16,9 C 12,0 C 1,8 UV-I 1,2 C 58 % 79 % 35 % 1006,6 hPa 0,0 l/m 3,3 km/h (1 Bft) 0,07 h 4,0 km/h (1 Bft)
08.06.2009 10:00 17,2 C 13,2 C 3,5 UV-I 2,1 C 57 % 75 % 58 % 1007,2 hPa 0,0 l/m 2,7 km/h (1 Bft) 0,17 h 3,3 km/h (1 Bft)
08.06.2009 11:00 17,7 C 14,8 C 4,9 UV-I 2,8 C 57 % 69 % 78 % 1007,3 hPa 0,0 l/m 1,8 km/h (1 Bft) 0,53 h 2,2 km/h (1 Bft)
08.06.2009 12:00 18,2 C 16,7 C 5,6 UV-I 3,6 C 56 % 62 % 84 % 1007,6 hPa 0,0 l/m 1,5 km/h (1 Bft) 0,57 h 2,0 km/h (1 Bft)
08.06.2009 13:00 18,8 C 18,3 C 5,3 UV-I 2,6 C 54 % 54 % 74 % 1007,9 hPa 0,0 l/m 1,9 km/h (1 Bft) 0,27 h 2,2 km/h (1 Bft)
08.06.2009 14:00 19,6 C 20,0 C 6,9 UV-I 3,4 C 51 % 49 % 89 % 1008,5 hPa 0,0 l/m 2,6 km/h (1 Bft) 0,77 h 3,2 km/h (1 Bft)
08.06.2009 15:00 20,9 C 21,5 C 5,5 UV-I 2,1 C 48 % 44 % 58 % 1009,7 hPa 0,0 l/m 3,3 km/h (1 Bft) 0,43 h 3,5 km/h (1 Bft)
08.06.2009 16:00 21,6 C 21,9 C 5,2 UV-I 2,4 C 46 % 44 % 61 % 1008,8 hPa 0,0 l/m 1,9 km/h (1 Bft) 0,30 h 1,8 km/h (1 Bft)
08.06.2009 17:00 22,1 C 22,2 C 2,7 UV-I 0,8 C 45 % 44 % 21 % 1008,9 hPa 0,0 l/m 1,6 km/h (1 Bft) 0,13 h 1,7 km/h (1 Bft)
08.06.2009 18:00 21,6 C 20,9 C 1,8 UV-I 0,0 C 47 % 47 % 0 % 1007,9 hPa 0,0 l/m 0,2 km/h (0 Bft) 0,00 h 0,2 km/h (0 Bft)
08.06.2009 19:00 21,2 C 19,7 C 0,7 UV-I 0,0 C 48 % 50 % 0 % 1007,2 hPa 0,0 l/m 0,0 km/h (0 Bft) 0,00 h 0,0 km/h (0 Bft)
08.06.2009 20:00 20,8 C 18,7 C 0,2 UV-I 0,0 C 49 % 54 % 0 % 1006,5 hPa 0,0 l/m 0,0 km/h (0 Bft) 0,00 h 0,0 km/h (0 Bft)
08.06.2009 21:00 20,5 C 17,7 C 0,0 UV-I 0,0 C 50 % 58 % 0 % 1006,2 hPa 0,0 l/m 0,0 km/h (0 Bft) 0,00 h 0,0 km/h (0 Bft)
08.06.2009 22:00 20,3 C 16,9 C 0,0 UV-I 0,0 C 50 % 62 % 0 % 1006,1 hPa 0,0 l/m 0,0 km/h (0 Bft) 0,00 h 0,0 km/h (0 Bft)
08.06.2009 23:00 20,1 C 16,3 C 0,0 UV-I 0,0 C 52 % 67 % 0 % 1005,8 hPa 0,0 l/m 0,0 km/h (0 Bft) 0,00 h 0,0 km/h (0 Bft)
09.06.2009 00:00 20,0 C 15,8 C 0,0 UV-I 0,0 C 53 % 69 % 0 % 1005,2 hPa 0,0 l/m 0,0 km/h (0 Bft) 0,00 h 0,0 km/h (0 Bft)
09.06.2009 01:00 19,9 C 15,5 C 0,0 UV-I 0,0 C 54 % 72 % 0 % 1004,8 hPa 0,0 l/m 0,0 km/h (0 Bft) 0,00 h 0,0 km/h (0 Bft)
09.06.2009 02:00 19,8 C 15,5 C 0,0 UV-I 0,0 C 54 % 72 % 0 % 1003,9 hPa 0,0 l/m 0,2 km/h (0 Bft) 0,00 h 0,5 km/h (0 Bft)
09.06.2009 03:00 19,7 C 15,5 C 0,0 UV-I 0,0 C 55 % 75 % 0 % 1003,6 hPa 0,0 l/m 0,4 km/h (0 Bft) 0,00 h 1,1 km/h (1 Bft)
09.06.2009 04:00 19,6 C 15,4 C 0,0 UV-I 0,0 C 58 % 79 % 0 % 1003,6 hPa 0,0 l/m 2,5 km/h (1 Bft) 0,00 h 3,5 km/h (1 Bft)
09.06.2009 05:00 19,4 C 15,1 C 0,0 UV-I 0,0 C 60 % 83 % 0 % 1003,8 hPa 0,0 l/m 2,5 km/h (1 Bft) 0,00 h 2,7 km/h (1 Bft)
09.06.2009 06:00 19,3 C 14,9 C 0,1 UV-I 0,0 C 62 % 84 % 0 % 1004,0 hPa 0,0 l/m 1,7 km/h (1 Bft) 0,00 h 2,5 km/h (1 Bft)
09.06.2009 07:00 19,2 C 15,4 C 0,5 UV-I 0,1 C 60 % 77 % 2 % 1004,4 hPa 0,0 l/m 3,9 km/h (1 Bft) 0,00 h 5,2 km/h (1 Bft)
09.06.2009 08:00 19,3 C 15,9 C 1,3 UV-I 0,1 C 58 % 72 % 2 % 1004,9 hPa 0,0 l/m 4,9 km/h (1 Bft) 0,00 h 5,8 km/h (2 Bft)
09.06.2009 09:00 19,4 C 16,3 C 2,2 UV-I 1,3 C 57 % 71 % 35 % 1005,4 hPa 0,0 l/m 4,5 km/h (1 Bft) 0,20 h 4,9 km/h (1 Bft)
09.06.2009 10:00 19,5 C 18,1 C 5,3 UV-I 4,1 C 57 % 66 % 99 % 1005,7 hPa 0,0 l/m 5,9 km/h (2 Bft) 1,00 h 6,1 km/h (2 Bft)
09.06.2009 11:00 19,8 C 20,0 C 7,1 UV-I 2,3 C 56 % 58 % 63 % 1005,8 hPa 0,0 l/m 6,7 km/h (2 Bft) 0,40 h 5,8 km/h (2 Bft)
09.06.2009 12:00 20,1 C 21,3 C 7,1 UV-I 3,0 C 55 % 52 % 82 % 1006,2 hPa 0,0 l/m 7,6 km/h (2 Bft) 0,60 h 8,8 km/h (2 Bft)
09.06.2009 13:00 20,6 C 22,1 C 6,0 UV-I 1,9 C 54 % 51 % 55 % 1006,3 hPa 0,0 l/m 6,4 km/h (2 Bft) 0,30 h 6,7 km/h (2 Bft)
09.06.2009 14:00 21,2 C 22,6 C 4,4 UV-I 0,7 C 53 % 53 % 20 % 1006,3 hPa 1,3 l/m 6,0 km/h (2 Bft) 0,00 h 6,0 km/h (2 Bft)
09.06.2009 15:00 22,0 C 21,8 C 4,9 UV-I 1,0 C 56 % 63 % 28 % 1007,5 hPa 0,0 l/m 6,8 km/h (2 Bft) 0,00 h 6,3 km/h (2 Bft)
09.06.2009 16:00 22,3 C 20,5 C 1,6 UV-I 0,0 C 55 % 66 % 0 % 1006,3 hPa 2,3 l/m 3,7 km/h (1 Bft) 0,00 h 3,9 km/h (1 Bft)
09.06.2009 17:00 22,2 C 19,4 C 2,5 UV-I 0,4 C 56 % 67 % 10 % 1006,5 hPa 0,0 l/m 4,7 km/h (1 Bft) 0,00 h 5,1 km/h (1 Bft)
09.06.2009 18:00 22,2 C 20,1 C 2,3 UV-I 2,3 C 53 % 59 % 66 % 1006,6 hPa 0,0 l/m 7,4 km/h (2 Bft) 0,37 h 6,1 km/h (2 Bft)
09.06.2009 19:00 21,9 C 19,5 C 1,1 UV-I 0,0 C 52 % 61 % 0 % 1006,4 hPa 0,0 l/m 4,4 km/h (1 Bft) 0,00 h 4,1 km/h (1 Bft)
09.06.2009 20:00 21,5 C 19,1 C 0,6 UV-I 0,0 C 54 % 63 % 0 % 1006,8 hPa 0,0 l/m 4,2 km/h (1 Bft) 0,00 h 4,6 km/h (1 Bft)
09.06.2009 21:00 21,2 C 18,1 C 0,2 UV-I 0,0 C 55 % 67 % 0 % 1006,7 hPa 0,0 l/m 1,8 km/h (1 Bft) 0,00 h 2,1 km/h (1 Bft)
09.06.2009 22:00 20,8 C 17,1 C 0,0 UV-I 0,0 C 56 % 71 % 0 % 1006,8 hPa 0,0 l/m 2,3 km/h (1 Bft) 0,00 h 2,0 km/h (1 Bft)
09.06.2009 23:00 20,5 C 16,6 C 0,0 UV-I 0,0 C 56 % 71 % 0 % 1006,7 hPa 0,0 l/m 2,3 km/h (1 Bft) 0,00 h 3,0 km/h (1 Bft)
10.06.2009 00:00 20,2 C 16,2 C 0,0 UV-I 0,0 C 56 % 73 % 0 % 1006,5 hPa 0,0 l/m 4,2 km/h (1 Bft) 0,00 h 4,6 km/h (1 Bft)
10.06.2009 01:00 20,0 C 15,8 C 0,0 UV-I 0,0 C 58 % 78 % 0 % 1006,9 hPa 0,0 l/m 6,6 km/h (2 Bft) 0,00 h 7,7 km/h (2 Bft)
10.06.2009 02:00 19,8 C 14,8 C 0,0 UV-I 0,0 C 59 % 80 % 0 % 1008,3 hPa 0,0 l/m 4,9 km/h (1 Bft) 0,00 h 5,1 km/h (1 Bft)
10.06.2009 03:00 19,6 C 14,1 C 0,0 UV-I 0,0 C 59 % 82 % 0 % 1009,3 hPa 0,0 l/m 2,2 km/h (1 Bft) 0,00 h 2,3 km/h (1 Bft)
10.06.2009 04:00 19,5 C 13,7 C 0,0 UV-I 0,0 C 59 % 82 % 0 % 1009,7 hPa 0,0 l/m 1,6 km/h (1 Bft) 0,00 h 1,9 km/h (1 Bft)
10.06.2009 05:00 19,3 C 13,1 C 0,0 UV-I 0,0 C 59 % 84 % 0 % 1010,2 hPa 0,0 l/m 0,5 km/h (0 Bft) 0,00 h 0,5 km/h (0 Bft)
10.06.2009 06:00 19,2 C 13,0 C 0,2 UV-I 0,0 C 60 % 85 % 0 % 1011,1 hPa 0,0 l/m 1,3 km/h (1 Bft) 0,00 h 1,7 km/h (1 Bft)
10.06.2009 07:00 19,2 C 13,4 C 0,6 UV-I 0,1 C 60 % 84 % 3 % 1011,7 hPa 0,0 l/m 1,2 km/h (1 Bft) 0,00 h 1,1 km/h (1 Bft)
10.06.2009 08:00 19,2 C 14,0 C 1,7 UV-I 0,5 C 60 % 82 % 15 % 1012,1 hPa 0,0 l/m 1,9 km/h (1 Bft) 0,00 h 2,5 km/h (1 Bft)
10.06.2009 09:00 19,4 C 15,2 C 2,7 UV-I 1,7 C 58 % 76 % 48 % 1012,7 hPa 0,0 l/m 2,7 km/h (1 Bft) 0,00 h 3,2 km/h (1 Bft)
10.06.2009 10:00 19,7 C 16,6 C 4,1 UV-I 3,2 C 57 % 70 % 87 % 1013,0 hPa 0,0 l/m 2,2 km/h (1 Bft) 0,67 h 2,7 km/h (1 Bft)
10.06.2009 11:00 20,0 C 17,8 C 3,7 UV-I 1,6 C 56 % 66 % 47 % 1013,5 hPa 0,0 l/m 2,6 km/h (1 Bft) 0,10 h 2,8 km/h (1 Bft)
10.06.2009 12:00 20,3 C 17,9 C 2,0 UV-I 0,5 C 55 % 65 % 14 % 1013,5 hPa 0,0 l/m 1,4 km/h (1 Bft) 0,00 h 1,1 km/h (1 Bft)
10.06.2009 13:00 20,4 C 18,7 C 5,2 UV-I 2,8 C 55 % 63 % 72 % 1013,9 hPa 0,0 l/m 2,2 km/h (1 Bft) 0,37 h 2,6 km/h (1 Bft)
10.06.2009 14:00 21,0 C 20,1 C 3,2 UV-I 1,7 C 55 % 59 % 47 % 1013,6 hPa 0,0 l/m 0,9 km/h (0 Bft) 0,23 h 0,7 km/h (0 Bft)
10.06.2009 15:00 21,1 C 19,5 C 2,0 UV-I 0,1 C 54 % 62 % 3 % 1013,3 hPa 0,0 l/m 1,7 km/h (1 Bft) 0,00 h 1,6 km/h (1 Bft)
10.06.2009 16:00 21,7 C 20,3 C 4,5 UV-I 2,5 C 54 % 59 % 68 % 1014,5 hPa 0,0 l/m 3,6 km/h (1 Bft) 0,53 h 4,5 km/h (1 Bft)
10.06.2009 17:00 22,0 C 19,3 C 3,7 UV-I 0,0 C 54 % 67 % 0 % 1013,2 hPa 0,0 l/m 0,7 km/h (0 Bft) 0,00 h 0,6 km/h (0 Bft)
10.06.2009 18:00 21,7 C 18,9 C 2,3 UV-I 0,1 C 55 % 68 % 2 % 1012,1 hPa 0,1 l/m 0,1 km/h (0 Bft) 0,00 h 0,0 km/h (0 Bft)
10.06.2009 19:00 21,4 C 18,7 C 1,0 UV-I 0,0 C 56 % 66 % 0 % 1011,4 hPa 0,0 l/m 1,8 km/h (1 Bft) 0,00 h 2,9 km/h (1 Bft)
10.06.2009 20:00 20,9 C 16,9 C 0,3 UV-I 0,0 C 54 % 66 % 0 % 1011,1 hPa 0,2 l/m 2,1 km/h (1 Bft) 0,00 h 1,9 km/h (1 Bft)
10.06.2009 21:00 20,5 C 15,3 C 0,0 UV-I 0,0 C 57 % 76 % 0 % 1009,8 hPa 0,9 l/m 0,8 km/h (0 Bft) 0,00 h 0,8 km/h (0 Bft)
10.06.2009 22:00 20,1 C 14,1 C 0,0 UV-I 0,0 C 59 % 84 % 0 % 1008,8 hPa 0,6 l/m 0,0 km/h (0 Bft) 0,00 h 0,0 km/h (0 Bft)
10.06.2009 23:00 20,0 C 13,6 C 0,0 UV-I 0,0 C 61 % 88 % 0 % 1007,4 hPa 1,5 l/m 0,0 km/h (0 Bft) 0,00 h 0,0 km/h (0 Bft)
11.06.2009 00:00 19,8 C 13,4 C 0,0 UV-I 0,0 C 62 % 90 % 0 % 1005,6 hPa 3,4 l/m 0,0 km/h (0 Bft) 0,00 h 0,2 km/h (0 Bft)
11.06.2009 01:00 19,6 C 13,3 C 0,0 UV-I 0,0 C 63 % 91 % 0 % 1003,9 hPa 3,3 l/m 0,7 km/h (0 Bft) 0,00 h 1,7 km/h (1 Bft)
11.06.2009 02:00 19,4 C 13,4 C 0,0 UV-I 0,0 C 63 % 92 % 0 % 1002,2 hPa 0,7 l/m 1,3 km/h (1 Bft) 0,00 h 1,5 km/h (1 Bft)
11.06.2009 03:00 19,3 C 13,9 C 0,0 UV-I 0,0 C 65 % 93 % 0 % 1001,3 hPa 0,1 l/m 2,8 km/h (1 Bft) 0,00 h 4,1 km/h (1 Bft)
11.06.2009 04:00 19,2 C 14,5 C 0,0 UV-I 0,0 C 66 % 93 % 0 % 1001,3 hPa 0,0 l/m 2,5 km/h (1 Bft) 0,00 h 3,0 km/h (1 Bft)
11.06.2009 05:00 19,2 C 14,1 C 0,0 UV-I 0,0 C 66 % 91 % 0 % 1002,0 hPa 0,0 l/m 4,7 km/h (1 Bft) 0,00 h 5,5 km/h (1 Bft)
11.06.2009 06:00 19,0 C 13,5 C 0,1 UV-I 0,0 C 65 % 91 % 0 % 1003,6 hPa 0,1 l/m 4,9 km/h (1 Bft) 0,00 h 5,0 km/h (1 Bft)
11.06.2009 07:00 18,9 C 13,1 C 0,3 UV-I 0,0 C 65 % 91 % 0 % 1004,9 hPa 0,1 l/m 5,4 km/h (1 Bft) 0,00 h 6,3 km/h (2 Bft)
11.06.2009 08:00 18,8 C 13,1 C 1,3 UV-I 0,0 C 64 % 90 % 0 % 1006,2 hPa 0,0 l/m 6,2 km/h (2 Bft) 0,00 h 6,9 km/h (2 Bft)
11.06.2009 09:00 19,0 C 13,7 C 1,5 UV-I 0,0 C 66 % 89 % 1 % 1007,7 hPa 0,1 l/m 5,4 km/h (1 Bft) 0,00 h 5,4 km/h (1 Bft)
11.06.2009 10:00 19,2 C 13,7 C 2,0 UV-I 0,2 C 65 % 89 % 6 % 1009,4 hPa 0,5 l/m 5,7 km/h (1 Bft) 0,00 h 7,1 km/h (2 Bft)
11.06.2009 11:00 19,2 C 13,8 C 1,2 UV-I 0,0 C 64 % 88 % 0 % 1010,8 hPa 1,2 l/m 6,0 km/h (2 Bft) 0,00 h 6,5 km/h (2 Bft)
11.06.2009 12:00 19,3 C 14,0 C 2,8 UV-I 0,5 C 64 % 86 % 14 % 1012,9 hPa 0,0 l/m 4,3 km/h (1 Bft) 0,00 h 7,7 km/h (2 Bft)
11.06.2009 13:00 19,5 C 14,4 C 1,3 UV-I 0,1 C 62 % 82 % 4 % 1013,7 hPa 0,0 l/m 2,6 km/h (1 Bft) 0,00 h 3,9 km/h (1 Bft)
11.06.2009 14:00 19,5 C 14,5 C 1,1 UV-I 0,0 C 63 % 86 % 0 % 1014,4 hPa 0,1 l/m 0,8 km/h (0 Bft) 0,00 h 1,1 km/h (1 Bft)
11.06.2009 15:00 19,4 C 14,2 C 1,3 UV-I 0,0 C 63 % 85 % 0 % 1014,8 hPa 0,3 l/m 1,6 km/h (1 Bft) 0,00 h 2,6 km/h (1 Bft)
11.06.2009 16:00 19,4 C 14,3 C 1,6 UV-I 0,0 C 63 % 86 % 1 % 1015,3 hPa 0,0 l/m 1,6 km/h (1 Bft) 0,00 h 2,9 km/h (1 Bft)
11.06.2009 17:00 19,4 C 14,5 C 0,7 UV-I 0,0 C 63 % 86 % 0 % 1015,6 hPa 0,1 l/m 2,4 km/h (1 Bft) 0,00 h 3,2 km/h (1 Bft)
11.06.2009 18:00 19,2 C 13,5 C 0,5 UV-I 0,0 C 64 % 87 % 0 % 1016,0 hPa 4,4 l/m 1,4 km/h (1 Bft) 0,00 h 2,9 km/h (1 Bft)
11.06.2009 19:00 19,0 C 13,0 C 0,9 UV-I 0,0 C 64 % 90 % 0 % 1016,7 hPa 0,0 l/m 1,7 km/h (1 Bft) 0,00 h 2,5 km/h (1 Bft)
11.06.2009 20:00 19,1 C 13,2 C 0,7 UV-I 0,0 C 65 % 91 % 0 % 1017,2 hPa 0,1 l/m 0,6 km/h (0 Bft) 0,00 h 1,0 km/h (0 Bft)
11.06.2009 21:00 19,0 C 12,9 C 0,1 UV-I 0,0 C 65 % 90 % 0 % 1017,5 hPa 0,0 l/m 0,5 km/h (0 Bft) 0,00 h 1,5 km/h (1 Bft)
11.06.2009 22:00 18,7 C 12,3 C 0,0 UV-I 0,0 C 63 % 88 % 0 % 1017,9 hPa 0,0 l/m 2,0 km/h (1 Bft) 0,00 h 3,2 km/h (1 Bft)
11.06.2009 23:00 18,5 C 11,6 C 0,0 UV-I 0,0 C 62 % 87 % 0 % 1017,8 hPa 0,0 l/m 1,2 km/h (1 Bft) 0,00 h 2,5 km/h (1 Bft)
12.06.2009 00:00 18,2 C 11,3 C 0,0 UV-I 0,0 C 61 % 87 % 0 % 1017,8 hPa 0,0 l/m 2,4 km/h (1 Bft) 0,00 h 4,6 km/h (1 Bft)
12.06.2009 01:00 18,0 C 11,1 C 0,0 UV-I 0,0 C 60 % 86 % 0 % 1017,9 hPa 0,0 l/m 2,4 km/h (1 Bft) 0,00 h 3,8 km/h (1 Bft)
12.06.2009 02:00 17,8 C 10,9 C 0,0 UV-I 0,0 C 61 % 89 % 0 % 1018,0 hPa 0,0 l/m 3,8 km/h (1 Bft) 0,00 h 6,1 km/h (2 Bft)
12.06.2009 03:00 17,6 C 10,6 C 0,0 UV-I 0,0 C 62 % 90 % 0 % 1017,5 hPa 0,0 l/m 0,6 km/h (0 Bft) 0,00 h 0,8 km/h (0 Bft)
12.06.2009 04:00 17,6 C 9,9 C 0,0 UV-I 0,0 C 61 % 90 % 0 % 1018,0 hPa 0,0 l/m 0,2 km/h (0 Bft) 0,00 h 0,7 km/h (0 Bft)
12.06.2009 05:00 17,3 C 9,5 C 0,1 UV-I 0,0 C 61 % 92 % 0 % 1017,8 hPa 0,0 l/m 0,5 km/h (0 Bft) 0,00 h 1,0 km/h (0 Bft)
12.06.2009 06:00 17,2 C 9,5 C 0,5 UV-I 0,0 C 62 % 93 % 0 % 1018,1 hPa 0,1 l/m 0,9 km/h (0 Bft) 0,00 h 2,8 km/h (1 Bft)
12.06.2009 07:00 17,2 C 10,1 C 1,1 UV-I 0,0 C 62 % 93 % 0 % 1018,3 hPa 0,0 l/m 1,8 km/h (1 Bft) 0,00 h 3,7 km/h (1 Bft)
12.06.2009 08:00 17,3 C 11,2 C 1,7 UV-I 0,4 C 63 % 92 % 12 % 1018,9 hPa 0,0 l/m 3,0 km/h (1 Bft) 0,00 h 5,2 km/h (1 Bft)
12.06.2009 09:00 17,5 C 12,8 C 2,3 UV-I 1,9 C 63 % 88 % 49 % 1019,1 hPa 0,0 l/m 2,8 km/h (1 Bft) 0,23 h 4,3 km/h (1 Bft)
12.06.2009 10:00 17,9 C 14,7 C 3,5 UV-I 3,6 C 62 % 77 % 91 % 1019,3 hPa 0,0 l/m 4,6 km/h (1 Bft) 0,73 h 7,5 km/h (2 Bft)
12.06.2009 11:00 18,3 C 16,4 C 5,6 UV-I 3,1 C 59 % 66 % 87 % 1019,4 hPa 0,0 l/m 4,4 km/h (1 Bft) 0,63 h 9,1 km/h (2 Bft)
12.06.2009 12:00 18,7 C 18,0 C 6,5 UV-I 4,0 C 56 % 55 % 99 % 1019,8 hPa 0,0 l/m 5,0 km/h (1 Bft) 0,97 h 8,3 km/h (2 Bft)
12.06.2009 13:00 19,2 C 18,7 C 5,0 UV-I 2,2 C 53 % 47 % 62 % 1019,9 hPa 0,0 l/m 5,7 km/h (1 Bft) 0,23 h 10,2 km/h (2 Bft)
12.06.2009 14:00 19,9 C 19,4 C 5,4 UV-I 2,7 C 50 % 46 % 74 % 1020,7 hPa 0,0 l/m 4,8 km/h (1 Bft) 0,33 h 6,7 km/h (2 Bft)
12.06.2009 15:00 21,5 C 20,7 C 6,0 UV-I 3,7 C 47 % 42 % 95 % 1022,6 hPa 0,0 l/m 5,4 km/h (1 Bft) 0,93 h 9,7 km/h (2 Bft)
12.06.2009 16:00 22,7 C 21,1 C 4,6 UV-I 2,2 C 42 % 39 % 62 % 1023,5 hPa 0,0 l/m 5,7 km/h (1 Bft) 0,47 h 8,4 km/h (2 Bft)
12.06.2009 17:00 22,7 C 20,3 C 3,0 UV-I 1,9 C 41 % 39 % 54 % 1022,0 hPa 0,0 l/m 4,3 km/h (1 Bft) 0,13 h 7,6 km/h (2 Bft)
12.06.2009 18:00 22,5 C 19,7 C 2,2 UV-I 2,3 C 41 % 38 % 65 % 1021,7 hPa 0,0 l/m 4,5 km/h (1 Bft) 0,23 h 6,4 km/h (2 Bft)
12.06.2009 19:00 22,0 C 18,6 C 1,5 UV-I 0,0 C 41 % 41 % 0 % 1021,3 hPa 0,0 l/m 4,0 km/h (1 Bft) 0,00 h 5,5 km/h (1 Bft)
12.06.2009 20:00 21,5 C 17,7 C 0,7 UV-I 0,0 C 42 % 46 % 0 % 1021,1 hPa 0,0 l/m 1,7 km/h (1 Bft) 0,00 h 2,5 km/h (1 Bft)
12.06.2009 21:00 21,2 C 16,2 C 0,1 UV-I 0,0 C 45 % 54 % 0 % 1020,9 hPa 0,0 l/m 0,1 km/h (0 Bft) 0,00 h 0,2 km/h (0 Bft)
12.06.2009 22:00 20,7 C 14,0 C 0,0 UV-I 0,0 C 46 % 63 % 0 % 1021,4 hPa 0,0 l/m 0,0 km/h (0 Bft) 0,00 h 0,0 km/h (0 Bft)
12.06.2009 23:00 20,1 C 12,0 C 0,0 UV-I 0,0 C 48 % 72 % 0 % 1021,4 hPa 0,0 l/m 0,0 km/h (0 Bft) 0,00 h 0,0 km/h (0 Bft)
13.06.2009 00:00 19,6 C 10,3 C 0,0 UV-I 0,0 C 49 % 78 % 0 % 1021,5 hPa 0,0 l/m 0,0 km/h (0 Bft) 0,00 h 0,0 km/h (0 Bft)
13.06.2009 01:00 19,2 C 9,0 C 0,0 UV-I 0,0 C 50 % 82 % 0 % 1021,8 hPa 0,0 l/m 0,0 km/h (0 Bft) 0,00 h 0,0 km/h (0 Bft)
13.06.2009 02:00 18,8 C 8,0 C 0,0 UV-I 0,0 C 50 % 85 % 0 % 1021,8 hPa 0,0 l/m 0,0 km/h (0 Bft) 0,00 h 0,0 km/h (0 Bft)
13.06.2009 03:00 18,5 C 7,2 C 0,0 UV-I 0,0 C 50 % 87 % 0 % 1021,3 hPa 0,0 l/m 0,0 km/h (0 Bft) 0,00 h 0,0 km/h (0 Bft)
13.06.2009 04:00 18,2 C 6,6 C 0,0 UV-I 0,0 C 50 % 88 % 0 % 1021,0 hPa 0,0 l/m 0,0 km/h (0 Bft) 0,00 h 0,0 km/h (0 Bft)
13.06.2009 05:00 18,0 C 6,1 C 0,0 UV-I 0,0 C 50 % 89 % 0 % 1021,1 hPa 0,0 l/m 0,0 km/h (0 Bft) 0,00 h 0,0 km/h (0 Bft)
13.06.2009 06:00 17,9 C 5,9 C 0,4 UV-I 0,0 C 51 % 91 % 1 % 1021,2 hPa 0,0 l/m 0,0 km/h (0 Bft) 0,00 h 0,0 km/h (0 Bft)
13.06.2009 07:00 17,8 C 6,8 C 1,0 UV-I 0,8 C 53 % 93 % 23 % 1021,3 hPa 0,0 l/m 0,0 km/h (0 Bft) 0,00 h 0,0 km/h (0 Bft)
13.06.2009 08:00 18,1 C 9,3 C 1,5 UV-I 2,3 C 54 % 93 % 66 % 1021,7 hPa 0,0 l/m 0,2 km/h (0 Bft) 0,00 h 0,2 km/h (0 Bft)
13.06.2009 09:00 18,5 C 11,8 C 1,8 UV-I 3,1 C 53 % 81 % 69 % 1021,8 hPa 0,0 l/m 0,6 km/h (0 Bft) 0,27 h 1,5 km/h (1 Bft)
13.06.2009 10:00 18,6 C 14,9 C 2,4 UV-I 7,8 C 52 % 69 % 100 % 1021,9 hPa 0,0 l/m 1,1 km/h (1 Bft) 0,97 h 2,0 km/h (1 Bft)
13.06.2009 11:00 18,8 C 18,1 C 8,8 UV-I 6,4 C 51 % 51 % 100 % 1021,9 hPa 0,0 l/m 1,4 km/h (1 Bft) 0,97 h 3,5 km/h (1 Bft)
13.06.2009 12:00 19,2 C 20,2 C 7,0 UV-I 5,2 C 49 % 42 % 100 % 1021,8 hPa 0,0 l/m 1,7 km/h (1 Bft) 0,97 h 2,7 km/h (1 Bft)
13.06.2009 13:00 19,8 C 21,7 C 6,8 UV-I 4,5 C 48 % 40 % 100 % 1021,9 hPa 0,0 l/m 1,7 km/h (1 Bft) 0,97 h 1,7 km/h (1 Bft)
13.06.2009 14:00 20,7 C 23,3 C 6,7 UV-I 3,6 C 46 % 36 % 97 % 1022,3 hPa 0,0 l/m 2,0 km/h (1 Bft) 0,97 h 4,4 km/h (1 Bft)
13.06.2009 15:00 21,8 C 24,3 C 6,1 UV-I 3,4 C 44 % 34 % 94 % 1022,0 hPa 0,0 l/m 2,2 km/h (1 Bft) 0,90 h 3,3 km/h (1 Bft)
13.06.2009 16:00 22,9 C 24,9 C 6,4 UV-I 3,9 C 43 % 35 % 100 % 1021,5 hPa 0,0 l/m 2,5 km/h (1 Bft) 0,97 h 3,7 km/h (1 Bft)
13.06.2009 17:00 23,8 C 24,8 C 3,5 UV-I 3,6 C 42 % 36 % 97 % 1021,1 hPa 0,0 l/m 2,5 km/h (1 Bft) 0,87 h 3,1 km/h (1 Bft)
13.06.2009 18:00 24,0 C 23,8 C 2,4 UV-I 1,8 C 42 % 38 % 52 % 1021,2 hPa 0,0 l/m 1,1 km/h (1 Bft) 0,27 h 2,4 km/h (1 Bft)
13.06.2009 19:00 23,5 C 21,8 C 1,5 UV-I 0,0 C 43 % 44 % 0 % 1021,0 hPa 0,0 l/m 0,2 km/h (0 Bft) 0,00 h 0,4 km/h (0 Bft)
13.06.2009 20:00 23,0 C 20,8 C 0,8 UV-I 0,0 C 44 % 47 % 0 % 1020,7 hPa 0,0 l/m 0,2 km/h (0 Bft) 0,00 h 0,3 km/h (0 Bft)
13.06.2009 21:00 22,7 C 19,4 C 0,1 UV-I 0,0 C 45 % 55 % 0 % 1020,3 hPa 0,0 l/m 0,0 km/h (0 Bft) 0,00 h 0,0 km/h (0 Bft)
13.06.2009 22:00 22,2 C 17,5 C 0,0 UV-I 0,0 C 47 % 63 % 0 % 1020,3 hPa 0,0 l/m 0,0 km/h (0 Bft) 0,00 h 0,0 km/h (0 Bft)
13.06.2009 23:00 21,7 C 15,7 C 0,0 UV-I 0,0 C 50 % 70 % 0 % 1020,2 hPa 0,0 l/m 0,0 km/h (0 Bft) 0,00 h 0,0 km/h (0 Bft)
14.06.2009 00:00 21,2 C 14,3 C 0,0 UV-I 0,0 C 51 % 75 % 0 % 1020,1 hPa 0,0 l/m 0,0 km/h (0 Bft) 0,00 h 0,0 km/h (0 Bft)
14.06.2009 01:00 20,8 C 13,3 C 0,0 UV-I 0,0 C 53 % 79 % 0 % 1020,2 hPa 0,0 l/m 0,0 km/h (0 Bft) 0,00 h 0,0 km/h (0 Bft)
14.06.2009 02:00 20,5 C 12,8 C 0,0 UV-I 0,2 C 53 % 80 % 0 % 1019,7 hPa 0,0 l/m 0,0 km/h (0 Bft) 0,00 h 0,0 km/h (0 Bft)
14.06.2009 03:00 20,4 C 13,1 C 0,0 UV-I 0,0 C 52 % 78 % 0 % 1019,1 hPa 0,0 l/m 0,0 km/h (0 Bft) 0,00 h 0,0 km/h (0 Bft)
14.06.2009 04:00 20,2 C 13,0 C 0,0 UV-I 0,0 C 52 % 79 % 0 % 1018,7 hPa 0,0 l/m 0,1 km/h (0 Bft) 0,00 h 0,4 km/h (0 Bft)
14.06.2009 05:00 20,0 C 12,8 C 0,0 UV-I 0,0 C 54 % 82 % 0 % 1018,3 hPa 0,0 l/m 0,1 km/h (0 Bft) 0,00 h 0,2 km/h (0 Bft)
14.06.2009 06:00 19,9 C 12,9 C 0,4 UV-I 0,0 C 55 % 84 % 0 % 1017,9 hPa 0,0 l/m 0,7 km/h (0 Bft) 0,00 h 1,2 km/h (1 Bft)
14.06.2009 07:00 19,8 C 13,7 C 1,0 UV-I 0,7 C 56 % 84 % 19 % 1017,9 hPa 0,0 l/m 2,4 km/h (1 Bft) 0,00 h 5,0 km/h (1 Bft)
14.06.2009 08:00 20,0 C 15,3 C 1,7 UV-I 1,2 C 56 % 81 % 33 % 1017,8 hPa 0,0 l/m 1,7 km/h (1 Bft) 0,00 h 2,5 km/h (1 Bft)
14.06.2009 09:00 20,4 C 17,6 C 2,6 UV-I 2,8 C 57 % 78 % 74 % 1017,8 hPa 0,0 l/m 1,6 km/h (1 Bft) 0,43 h 2,6 km/h (1 Bft)
14.06.2009 10:00 20,9 C 20,9 C 3,5 UV-I 4,4 C 57 % 69 % 94 % 1017,5 hPa 0,0 l/m 1,6 km/h (1 Bft) 0,87 h 2,8 km/h (1 Bft)
14.06.2009 11:00 21,2 C 22,4 C 1,8 UV-I 0,8 C 56 % 63 % 23 % 1017,8 hPa 0,0 l/m 0,5 km/h (0 Bft) 0,00 h 0,6 km/h (0 Bft)
14.06.2009 12:00 21,4 C 20,8 C 1,7 UV-I 0,0 C 57 % 72 % 0 % 1018,6 hPa 0,1 l/m 2,7 km/h (1 Bft) 0,00 h 6,4 km/h (2 Bft)
14.06.2009 13:00 21,4 C 19,1 C 1,5 UV-I 0,0 C 59 % 81 % 0 % 1018,6 hPa 0,2 l/m 0,7 km/h (0 Bft) 0,00 h 1,2 km/h (1 Bft)
14.06.2009 14:00 21,4 C 19,0 C 1,9 UV-I 0,2 C 60 % 82 % 5 % 1018,3 hPa 0,0 l/m 0,6 km/h (0 Bft) 0,00 h 1,2 km/h (1 Bft)
14.06.2009 15:00 21,5 C 19,1 C 2,7 UV-I 0,8 C 60 % 81 % 23 % 1018,5 hPa 0,0 l/m 1,9 km/h (1 Bft) 0,07 h 3,5 km/h (1 Bft)
14.06.2009 16:00 21,8 C 20,1 C 3,9 UV-I 2,6 C 60 % 77 % 74 % 1018,0 hPa 0,0 l/m 1,6 km/h (1 Bft) 0,40 h 2,7 km/h (1 Bft)
14.06.2009 17:00 22,2 C 21,3 C 3,1 UV-I 2,8 C 59 % 72 % 72 % 1017,4 hPa 0,0 l/m 0,3 km/h (0 Bft) 0,53 h 0,7 km/h (0 Bft)
14.06.2009 18:00 22,5 C 22,0 C 1,7 UV-I 0,7 C 58 % 68 % 19 % 1017,1 hPa 0,0 l/m 0,5 km/h (0 Bft) 0,00 h 0,8 km/h (0 Bft)
14.06.2009 19:00 22,4 C 21,7 C 1,2 UV-I 0,0 C 58 % 69 % 1 % 1017,1 hPa 0,0 l/m 0,2 km/h (0 Bft) 0,00 h 0,5 km/h (0 Bft)
14.06.2009 20:00 22,3 C 21,0 C 0,7 UV-I 0,0 C 59 % 72 % 0 % 1016,9 hPa 0,0 l/m 0,2 km/h (0 Bft) 0,00 h 0,2 km/h (0 Bft)
14.06.2009 21:00 22,1 C 20,0 C 0,0 UV-I 0,0 C 60 % 75 % 0 % 1017,0 hPa 0,0 l/m 0,0 km/h (0 Bft) 0,00 h 0,1 km/h (0 Bft)
14.06.2009 22:00 21,8 C 19,4 C 0,0 UV-I 0,0 C 61 % 78 % 0 % 1017,2 hPa 0,0 l/m 0,0 km/h (0 Bft) 0,00 h 0,0 km/h (0 Bft)
14.06.2009 23:00 21,6 C 18,9 C 0,0 UV-I 0,0 C 62 % 80 % 0 % 1017,2 hPa 0,0 l/m 0,0 km/h (0 Bft) 0,00 h 0,0 km/h (0 Bft)
Min-Datum _ 08.06.09 13.06.09 08.06.09 08.06.09 12.06.09 13.06.09 08.06.09 11.06.09 - 08.06.09 - 08.06.09
_ Min-Zeit 07:00 06:14 00:00 00:00 18:08 14:52 00:00 03:38 - 00:12 - 00:02
Minimum _ 16,7 C 5,8 C 0,0 UV-I 0,0 C 40 % 32 % 0 % 1001,1 hPa - 0,0 km/h (0 Bft) - 0,0 km/h (0 Bft)
Max-Datum _ 13.06.09 13.06.09 09.06.09 13.06.09 11.06.09 13.06.09 08.06.09 12.06.09 11.06.09 09.06.09 08.06.09 12.06.09
_ Max-Zeit 18:04 16:40 11:12 10:02 03:42 07:54 10:50 16:18 18:04 15:04 09:52 13:14
Maximum _ 24,1 C 25,3 C 13,4 UV-I 8,5 C 66 % 94 % 100 % 1024,2 hPa 4,4 l/m 10,6 km/h
NO (2 Bft)
0,03 h 28,6 km/h
W-SW (4 Bft)
Durchschnitt _ 19,9 C 15,9 C 1,7 UV-I 0,9 C 56 % 72 % 22 % 1013,2 hPa #22,1 l/m 2,0 km/h (1 Bft) #23:18 h 2,7 km/h (1 Bft)
© 2012 W. Hausmann